Philadelphia, Pennsylvania
Traffic Map
Current Weather Conditions
Philadelphia, Pennsylvania
Overcast
Overcast
25°
Feels Like: 17°
Wind Chill: 17° Ceiling: 8000
Heat Index: 25° Visibility: 10mi
Dew Point: Wind: 7mph
Humidity: 37% Direction: 230° (SW)
Pressure: 30.06in Gusts: 0mph
Raw Report DataKPHL 122154Z 23006KT 10SM BKN080 OVC090 M04/M17 A3006 RMK AO2 SLP177 T10391167
Traffic Incident Summary
Active as of:
Severity:
Category:
InformationThere was an issue retrieving the traffic information for this location. Please try a different location or try again shortly.
Advertisements
Track Severe Weather on mobile